Time;durP1;ratioP1;P1;durP2;ratioP2;P2;SDS_P1;SDS_P2;PMS_P1;PMS_P2;Temp;Humidity;BMP_temperature;BMP_pressure;BME280_temperature;BME280_humidity;BME280_pressure;Samples;Min_cycle;Max_cycle;Signal;HPM_P1;HPM_P2
2022/03/08 00:00:25;;;;;;;6.70;6.00;;;;;;;10.39;36.10;96869.28;4972950;28;20286;-86
2022/03/08 00:02:52;;;;;;;7.07;6.37;;;;;;;14.62;35.78;97601.41;4953464;28;20239;-86
2022/03/08 00:05:18;;;;;;;6.77;6.10;;;;;;;12.74;35.77;97352.75;4958802;28;20705;-86
2022/03/08 00:07:46;;;;;;;6.80;5.73;;;;;;;13.40;36.45;97376.09;4952616;28;20744;-85
2022/03/08 00:10:14;;;;;;;6.13;5.43;;;;;;;12.85;36.04;97301.31;4973899;28;20226;-85
2022/03/08 00:12:41;;;;;;;5.90;5.30;;;;;;;13.26;35.52;97383.66;4954995;28;20579;-85
2022/03/08 00:15:10;;;;;;;6.10;5.50;;;;;;;15.43;35.73;97766.38;4954263;28;20239;-85
2022/03/08 00:17:39;;;;;;;6.43;5.83;;;;;;;15.13;36.99;97696.25;4955303;28;20208;-86
2022/03/08 00:20:06;;;;;;;7.50;6.27;;;;;;;13.92;36.01;97517.19;4968771;28;20299;-86
2022/03/08 00:22:34;;;;;;;6.10;5.50;;;;;;;15.04;36.00;97708.38;4940974;28;20212;-86
2022/03/08 00:25:01;;;;;;;6.10;5.50;;;;;;;15.78;35.58;97814.84;4969254;28;20224;-86
2022/03/08 00:27:28;;;;;;;6.30;5.70;;;;;;;17.66;35.95;98130.81;4971531;28;20216;-86
2022/03/08 00:29:55;;;;;;;6.30;5.70;;;;;;;16.01;35.95;97862.59;4968187;28;20721;-86
2022/03/08 00:32:26;;;;;;;6.23;5.57;;;;;;;14.87;35.99;97638.22;4967811;28;20210;-86
2022/03/08 00:34:53;;;;;;;6.13;5.53;;;;;;;17.18;36.12;98040.88;4955917;28;20680;-86
2022/03/08 00:37:20;;;;;;;7.33;5.97;;;;;;;15.51;35.69;97747.44;4953824;28;20207;-86
2022/03/08 01:01:25;;;;;;;5.67;5.17;;;;;;;17.57;35.81;98074.41;5369792;22;20244;-86
2022/03/08 01:03:52;;;;;;;5.80;5.30;;;;;;;16.18;36.17;97892.28;5032819;28;20250;-86
2022/03/08 01:06:19;;;;;;;5.90;5.27;;;;;;;14.53;35.76;97643.88;5030464;28;20267;-85
2022/03/08 01:08:45;;;;;;;6.40;5.73;;;;;;;14.50;36.17;97557.72;5014138;28;20674;-85
2022/03/08 01:11:12;;;;;;;6.17;5.50;;;;;;;12.01;35.67;97154.22;5025051;28;20241;-86
2022/03/08 01:13:39;;;;;;;5.63;5.03;;;;;;;13.47;36.74;97416.03;5038635;28;20659;-85
2022/03/08 01:16:09;;;;;;;6.30;5.70;;;;;;;9.32;35.67;96661.84;5016100;28;20698;-85
2022/03/08 01:18:36;;;;;;;5.67;5.13;;;;;;;11.56;36.01;97114.53;5026516;28;20263;-85
2022/03/08 01:21:03;;;;;;;6.00;5.40;;;;;;;14.31;35.82;97484.16;5026678;28;20221;-85
2022/03/08 01:23:29;;;;;;;5.73;5.17;;;;;;;16.79;35.96;97902.53;5007923;28;20229;-85
2022/03/08 01:25:56;;;;;;;5.80;5.30;;;;;;;15.02;35.93;97591.00;5029065;28;20201;-86
2022/03/08 01:28:23;;;;;;;6.03;5.43;;;;;;;14.96;35.93;97595.72;5008730;28;20221;-86
2022/03/08 01:30:50;;;;;;;5.63;5.10;;;;;;;14.59;36.13;97527.03;4996582;28;20222;-86
2022/03/08 01:33:17;;;;;;;5.60;5.10;;;;;;;14.69;36.05;97550.38;5029264;28;20198;-86
2022/03/08 01:35:44;;;;;;;5.93;5.33;;;;;;;15.85;35.36;97734.16;5026843;28;20209;-86
2022/03/08 01:38:10;;;;;;;5.90;5.20;;;;;;;15.40;35.61;97664.91;5023458;28;20202;-86
2022/03/08 01:40:39;;;;;;;5.90;5.40;;;;;;;15.28;36.04;97649.00;5015812;28;20228;-83
2022/03/08 01:43:09;;;;;;;5.97;5.37;;;;;;;12.71;35.82;97234.06;5028983;28;20212;-89
2022/03/08 02:12:54;;;;;;;5.57;5.03;;;;;;;12.56;35.71;97139.91;6031443;22;20311;-86
2022/03/08 02:15:23;;;;;;;6.00;5.40;;;;;;;13.55;35.54;97376.97;5043081;28;20205;-86
2022/03/08 02:17:50;;;;;;;5.50;5.00;;;;;;;15.60;36.12;97651.69;5032093;28;20227;-86
2022/03/08 02:20:17;;;;;;;5.47;4.97;;;;;;;14.57;35.81;97553.91;5014650;28;20252;-86
2022/03/08 02:22:45;;;;;;;5.93;5.33;;;;;;;11.74;36.05;96991.50;5012463;28;20256;-85
2022/03/08 02:25:12;;;;;;;6.50;5.90;;;;;;;15.35;36.14;97643.47;5009327;28;20275;-85
2022/03/08 02:27:44;;;;;;;5.30;4.80;;;;;;;16.78;35.94;97885.53;4992973;28;20308;-86
2022/03/08 02:30:13;;;;;;;5.40;4.90;;;;;;;15.68;35.91;97663.09;5008939;28;20213;-86
2022/03/08 02:32:40;;;;;;;5.90;5.30;;;;;;;15.81;36.04;97693.38;4995219;28;20201;-86
2022/03/08 02:35:21;;;;;;;5.73;5.00;;;;;;;10.74;35.90;96894.94;4993645;28;20197;-84
2022/03/08 02:37:52;;;;;;;5.33;4.83;;;;;;;11.72;35.95;96983.84;5006846;28;20198;-85
2022/03/08 02:40:27;;;;;;;5.57;5.07;;;;;;;12.52;35.83;97112.81;5025985;28;20224;-86
2022/03/08 02:42:54;;;;;;;5.27;4.80;;;;;;;11.05;35.95;96829.78;5012229;28;20368;-87
2022/03/08 02:45:21;;;;;;;5.27;4.77;;;;;;;13.68;35.61;97370.97;5007796;28;20228;-86
2022/03/08 02:47:48;;;;;;;5.33;4.83;;;;;;;15.15;35.71;97557.97;5007505;28;20203;-86
2022/03/08 02:50:15;;;;;;;5.40;4.90;;;;;;;13.25;35.45;97228.84;5004763;28;20605;-86
2022/03/08 02:52:43;;;;;;;4.90;4.50;;;;;;;11.84;35.68;97032.38;5012844;28;20677;-86
2022/03/08 02:55:11;;;;;;;4.87;4.47;;;;;;;13.99;35.66;97397.19;4986444;28;20289;-85
2022/03/08 02:57:39;;;;;;;5.40;4.90;;;;;;;13.13;35.58;97189.44;4993886;28;20582;-86
2022/03/08 03:00:07;;;;;;;5.00;4.60;;;;;;;14.59;35.85;97481.50;4994513;28;20221;-85
2022/03/08 03:02:34;;;;;;;5.40;4.90;;;;;;;14.55;36.17;97434.97;5007041;28;20671;-86
2022/03/08 03:05:00;;;;;;;4.90;4.50;;;;;;;17.08;36.24;97855.81;4995985;28;20221;-86
2022/03/08 03:07:29;;;;;;;5.30;4.80;;;;;;;15.63;35.87;97593.59;5007891;28;20832;-85
2022/03/08 03:09:56;;;;;;;5.07;4.67;;;;;;;14.88;36.00;97467.91;5028206;28;20232;-85
2022/03/08 03:12:22;;;;;;;5.23;4.73;;;;;;;10.75;35.93;96745.91;5031491;28;20264;-86
2022/03/08 03:14:49;;;;;;;5.50;4.97;;;;;;;15.90;35.71;97692.19;5008956;28;20626;-85
2022/03/08 03:17:17;;;;;;;5.10;4.60;;;;;;;15.42;36.04;97554.47;5025658;28;20212;-89
2022/03/08 03:19:49;;;;;;;5.27;4.77;;;;;;;17.25;36.05;97870.22;4994086;28;20214;-85
2022/03/08 03:22:16;;;;;;;4.90;4.50;;;;;;;15.98;36.28;97682.47;4989232;28;20651;-86
2022/03/08 03:24:43;;;;;;;5.07;4.57;;;;;;;16.54;35.93;97772.59;5013991;28;20629;-86
2022/03/08 03:27:09;;;;;;;4.60;4.20;;;;;;;13.85;36.12;97285.28;4999618;28;20197;-85
2022/03/08 03:29:36;;;;;;;4.90;4.43;;;;;;;15.45;36.14;97582.47;5011301;28;20213;-85
2022/03/08 03:32:03;;;;;;;5.27;4.77;;;;;;;11.29;36.19;96944.34;4989531;28;20216;-87
2022/03/08 03:34:30;;;;;;;4.80;4.40;;;;;;;17.02;35.86;97846.19;5022742;28;20214;-86
2022/03/08 03:37:00;;;;;;;5.30;4.80;;;;;;;16.10;35.80;97689.06;5012340;28;20205;-85
2022/03/08 03:39:27;;;;;;;4.57;4.17;;;;;;;16.36;35.92;97764.84;4993186;28;20773;-85
2022/03/08 03:41:56;;;;;;;5.20;4.70;;;;;;;15.66;35.59;97649.47;4989186;28;20228;-83
2022/03/08 04:16:33;;;;;;;4.90;4.40;;;;;;;17.72;36.56;97970.13;5002582;28;20230;-86
2022/03/08 04:19:02;;;;;;;5.20;4.70;;;;;;;15.01;36.05;97490.59;4961236;28;20203;-85
2022/03/08 04:21:32;;;;;;;4.53;4.13;;;;;;;13.39;35.80;97328.94;4977672;28;20230;-86
2022/03/08 04:23:59;;;;;;;4.50;4.10;;;;;;;13.40;36.39;97256.59;4960290;28;20206;-86
2022/03/08 04:26:26;;;;;;;4.80;4.40;;;;;;;14.22;36.21;97391.75;4968450;28;20211;-86
2022/03/08 04:28:58;;;;;;;5.10;4.60;;;;;;;16.76;35.99;97788.16;4991935;28;20252;-86
2022/03/08 04:31:24;;;;;;;6.57;4.53;;;;;;;14.77;35.82;97451.31;4987235;28;20245;-88
2022/03/08 04:33:51;;;;;;;4.40;4.00;;;;;;;11.16;36.13;96841.28;4991908;28;20230;-85
2022/03/08 04:36:18;;;;;;;4.63;4.23;;;;;;;16.66;36.36;97796.06;4976255;28;20205;-86
2022/03/08 04:38:45;;;;;;;5.03;4.63;;;;;;;15.44;35.91;97596.78;4963592;28;20473;-86
2022/03/08 04:41:12;;;;;;;4.70;4.17;;;;;;;13.82;36.38;97301.91;4986539;28;20231;-85
2022/03/08 04:43:38;;;;;;;4.20;3.80;;;;;;;14.97;36.15;97489.53;4973922;28;20214;-86
2022/03/08 04:46:05;;;;;;;4.57;4.17;;;;;;;13.01;36.08;97229.97;4960525;28;20234;-86
2022/03/08 04:48:32;;;;;;;4.17;3.77;;;;;;;15.86;35.83;97621.88;4975372;28;20210;-86
2022/03/08 04:50:59;;;;;;;5.20;4.70;;;;;;;14.43;36.00;97373.63;4977690;28;20221;-86
2022/03/08 04:53:25;;;;;;;4.37;3.97;;;;;;;14.31;35.85;97346.81;5005901;28;20272;-86
2022/03/08 04:55:54;;;;;;;5.03;4.37;;;;;;;13.33;35.95;97219.19;4959011;28;20205;-87
2022/03/08 04:58:21;;;;;;;4.67;4.27;;;;;;;16.76;35.92;97770.38;4980197;28;20689;-85
2022/03/08 05:00:48;;;;;;;4.47;4.07;;;;;;;15.71;36.39;97584.72;4975933;28;20225;-86
2022/03/08 05:03:15;;;;;;;5.10;4.37;;;;;;;17.80;36.17;97972.25;4977850;28;20198;-86
2022/03/08 05:05:45;;;;;;;4.57;4.17;;;;;;;16.48;36.17;97735.88;4959874;28;20727;-85
2022/03/08 05:08:16;;;;;;;4.70;4.30;;;;;;;16.79;36.33;97780.69;4957649;28;20213;-85
2022/03/08 05:10:46;;;;;;;4.33;3.93;;;;;;;17.29;36.13;97867.06;4972198;28;20227;-86
2022/03/08 05:13:12;;;;;;;4.20;3.80;;;;;;;17.14;36.38;97874.75;4957552;28;20257;-86
2022/03/08 05:15:41;;;;;;;5.00;4.50;;;;;;;18.03;36.20;98024.31;4942347;28;20239;-87
2022/03/08 05:18:08;;;;;;;4.97;4.47;;;;;;;16.22;35.71;97688.81;4942934;28;20610;-86
2022/03/08 05:20:36;;;;;;;4.63;4.23;;;;;;;18.02;36.49;98020.00;4941687;28;20222;-86
2022/03/08 05:23:03;;;;;;;4.20;3.80;;;;;;;16.01;35.96;97652.22;4966672;28;20214;-88
2022/03/08 06:32:52;;;;;;;4.63;4.20;;;;;;;17.35;36.11;97892.78;5292781;23;20615;-86
2022/03/08 06:35:19;;;;;;;5.90;4.20;;;;;;;17.56;36.03;97945.59;4993370;28;20218;-84
2022/03/08 06:37:46;;;;;;;4.20;3.80;;;;;;;17.82;35.89;97969.78;4977103;28;20288;-87
2022/03/08 06:40:13;;;;;;;7.17;3.90;;;;;;;17.49;35.67;97912.16;4988453;28;20258;-87
2022/03/08 06:42:39;;;;;;;4.30;3.93;;;;;;;17.58;35.84;97931.31;4990835;28;20210;-87
2022/03/08 06:45:06;;;;;;;4.37;3.87;;;;;;;17.36;35.95;97887.78;4974835;28;20253;-86
2022/03/08 06:47:33;;;;;;;4.33;3.60;;;;;;;17.56;36.23;97927.81;4974054;28;20290;-86
2022/03/08 06:50:00;;;;;;;4.30;3.90;;;;;;;17.45;36.18;97908.63;4957486;28;20278;-85
2022/03/08 06:52:28;;;;;;;4.60;4.20;;;;;;;17.53;36.41;97937.81;4973375;28;20180;-85
2022/03/08 06:54:54;;;;;;;4.50;4.10;;;;;;;16.88;36.20;97805.66;4989865;28;20242;-84
2022/03/08 06:57:21;;;;;;;5.07;4.20;;;;;;;17.47;35.76;97939.19;4958003;28;20253;-86
2022/03/08 06:59:47;;;;;;;4.17;3.77;;;;;;;17.66;36.09;97945.28;4989810;28;20626;-85
2022/03/08 07:02:14;;;;;;;5.33;3.87;;;;;;;17.38;36.13;97895.50;4988804;28;20306;-86
2022/03/08 07:04:41;;;;;;;4.30;3.90;;;;;;;17.13;36.12;97861.97;4973184;28;20215;-87
2022/03/08 07:07:08;;;;;;;3.90;3.60;;;;;;;17.60;35.94;97936.47;4973078;28;20265;-84
2022/03/08 07:09:34;;;;;;;3.90;3.60;;;;;;;17.90;35.83;97988.84;4988452;28;20230;-83
2022/03/08 07:12:01;;;;;;;4.90;4.20;;;;;;;17.60;36.03;97950.06;4972114;28;20321;-85
2022/03/08 07:14:33;;;;;;;4.53;4.13;;;;;;;17.66;36.42;97960.53;4973391;28;20201;-84
2022/03/08 07:16:59;;;;;;;4.50;4.10;;;;;;;18.09;35.69;98025.47;4981238;28;20246;-84
2022/03/08 07:19:26;;;;;;;4.80;4.40;;;;;;;17.44;36.11;97917.00;4974247;28;20203;-85
2022/03/08 07:21:53;;;;;;;4.73;4.23;;;;;;;17.49;36.14;97938.47;4957051;28;20309;-85
2022/03/08 07:24:19;;;;;;;4.43;3.87;;;;;;;17.79;36.14;98002.69;4991035;28;20235;-85
2022/03/08 07:26:46;;;;;;;4.60;4.20;;;;;;;17.27;35.66;97900.03;4972976;28;20619;-85
2022/03/08 07:29:13;;;;;;;4.57;4.10;;;;;;;16.24;35.88;97713.50;4970125;28;20199;-86
2022/03/08 07:31:39;;;;;;;5.03;4.20;;;;;;;17.11;36.08;97869.53;4945481;28;20345;-86
2022/03/08 07:34:06;;;;;;;4.60;4.20;;;;;;;17.34;36.28;97909.69;4957146;28;20211;-86
2022/03/08 07:36:33;;;;;;;4.40;4.00;;;;;;;17.36;36.57;97914.84;4945744;28;20286;-86
2022/03/08 07:39:00;;;;;;;4.60;4.20;;;;;;;17.56;35.84;97968.47;4946097;28;20206;-86
2022/03/08 07:41:26;;;;;;;4.53;3.97;;;;;;;17.51;36.10;97949.59;4944435;28;20315;-85
2022/03/08 07:43:53;;;;;;;7.00;4.07;;;;;;;17.64;36.26;97967.19;4961672;28;20290;-86
2022/03/08 07:46:20;;;;;;;4.47;3.77;;;;;;;17.44;36.06;97933.94;4953830;28;20225;-86
2022/03/08 07:48:47;;;;;;;5.47;4.17;;;;;;;17.46;36.24;97940.84;4985752;28;20199;-85
2022/03/08 07:51:33;;;;;;;4.63;4.10;;;;;;;17.54;36.41;97962.44;4989061;28;20566;-86
2022/03/08 07:54:00;;;;;;;4.07;3.77;;;;;;;17.24;36.46;97902.41;4946636;28;20199;-86
2022/03/08 07:56:26;;;;;;;4.10;3.70;;;;;;;17.48;36.81;97943.47;4964675;28;20287;-84
2022/03/08 07:58:54;;;;;;;4.03;3.63;;;;;;;17.35;36.60;97925.81;4986825;28;20289;-84
2022/03/08 08:01:21;;;;;;;6.63;3.40;;;;;;;17.59;36.21;97966.06;4971562;28;20374;-85
2022/03/08 08:03:48;;;;;;;3.80;3.40;;;;;;;17.22;36.19;97913.25;4958527;28;20265;-85
2022/03/08 08:06:18;;;;;;;3.90;3.60;;;;;;;17.32;36.30;97925.66;4973862;28;20226;-85
2022/03/08 08:08:45;;;;;;;3.77;3.47;;;;;;;17.97;36.62;98042.66;4958432;28;20222;-85
2022/03/08 08:11:12;;;;;;;4.20;3.87;;;;;;;17.09;36.81;97883.81;4959385;28;20281;-85
2022/03/08 08:13:38;;;;;;;3.60;3.30;;;;;;;17.43;36.84;97962.63;4977101;28;20234;-84
2022/03/08 08:16:05;;;;;;;4.17;3.77;;;;;;;17.60;36.97;98013.59;4966423;28;20250;-85
2022/03/08 08:18:32;;;;;;;4.40;3.60;;;;;;;17.28;36.56;97938.97;4972139;28;20214;-84
2022/03/08 08:21:01;;;;;;;3.93;3.53;;;;;;;17.14;36.80;97919.63;4985829;28;20255;-85
2022/03/08 08:23:28;;;;;;;4.03;3.63;;;;;;;17.11;36.53;97910.16;4956453;28;20219;-85
2022/03/08 08:25:55;;;;;;;3.40;3.10;;;;;;;15.97;36.96;97717.09;4984928;28;20314;-85
2022/03/08 08:28:21;;;;;;;3.40;3.10;;;;;;;17.45;36.62;97976.34;4973556;28;20206;-85
2022/03/08 08:30:48;;;;;;;4.93;4.00;;;;;;;17.09;36.22;97913.41;4972203;28;20976;-85
2022/03/08 08:33:15;;;;;;;3.90;3.50;;;;;;;17.45;36.91;97973.78;4974880;28;20265;-84
2022/03/08 08:35:41;;;;;;;3.87;3.47;;;;;;;17.80;36.58;98040.91;4971060;28;20299;-85
2022/03/08 08:38:08;;;;;;;3.90;3.60;;;;;;;17.82;36.85;98054.56;4963972;28;20200;-82
2022/03/08 08:40:35;;;;;;;5.07;4.37;;;;;;;17.10;36.41;97920.22;4979319;28;20306;-85
2022/03/08 08:43:08;;;;;;;5.23;4.70;;;;;;;17.33;36.14;97956.22;4951801;28;20391;-85
2022/03/08 08:45:34;;;;;;;4.60;4.20;;;;;;;17.38;36.84;97969.16;4971483;28;20758;-84
2022/03/08 08:48:05;;;;;;;4.83;3.93;;;;;;;17.05;36.78;97907.28;4957875;28;20224;-85
2022/03/08 08:50:32;;;;;;;4.97;4.13;;;;;;;16.87;37.15;97872.47;4975002;28;20693;-86
2022/03/08 08:52:58;;;;;;;4.23;3.83;;;;;;;17.37;36.73;97964.84;4972356;28;20285;-85
2022/03/08 08:55:25;;;;;;;4.90;4.40;;;;;;;17.23;37.27;97943.81;4968034;28;20605;-85
2022/03/08 08:57:52;;;;;;;4.70;4.20;;;;;;;16.31;37.01;97786.56;4973058;28;20294;-84
2022/03/08 09:00:18;;;;;;;4.07;3.73;;;;;;;17.32;37.01;97957.00;4961935;28;20313;-84
2022/03/08 09:02:45;;;;;;;3.90;3.50;;;;;;;17.12;37.10;97917.00;4962235;28;20282;-84
2022/03/08 09:05:12;;;;;;;5.67;3.77;;;;;;;17.13;36.75;97917.84;4974711;28;20250;-84
2022/03/08 09:07:39;;;;;;;3.87;3.57;;;;;;;17.31;36.93;97950.19;4971780;28;20310;-84
2022/03/08 09:10:07;;;;;;;3.80;3.40;;;;;;;17.27;37.30;97949.94;4956644;28;20310;-85
2022/03/08 09:12:33;;;;;;;3.33;3.03;;;;;;;17.32;36.73;97957.00;4970201;28;20242;-85
2022/03/08 09:15:02;;;;;;;4.37;3.80;;;;;;;16.77;37.21;97854.97;4987934;28;20277;-85
2022/03/08 09:17:29;;;;;;;3.47;3.17;;;;;;;17.16;36.76;97921.44;4989336;28;20290;-84
2022/03/08 09:19:55;;;;;;;3.50;3.20;;;;;;;17.27;36.90;97944.84;4988548;28;20215;-84
2022/03/08 09:22:22;;;;;;;3.90;3.60;;;;;;;17.13;37.40;97915.31;4974596;28;20203;-84
2022/03/08 09:24:49;;;;;;;4.00;3.70;;;;;;;17.49;37.37;97979.13;4972950;28;20286;-85
2022/03/08 09:27:16;;;;;;;3.70;3.30;;;;;;;17.04;37.37;97907.22;4958101;28;20199;-84
2022/03/08 09:29:45;;;;;;;3.97;3.60;;;;;;;17.08;36.88;97911.69;4958864;28;20286;-84
2022/03/08 09:32:12;;;;;;;3.50;3.20;;;;;;;16.82;37.48;97851.91;4989347;28;20207;-85
2022/03/08 09:34:39;;;;;;;3.90;3.50;;;;;;;17.31;36.91;97944.22;4972930;28;20238;-81
2022/03/08 09:37:07;;;;;;;3.77;3.47;;;;;;;17.09;37.15;97894.00;4974054;28;20191;-85
2022/03/08 09:39:34;;;;;;;3.63;3.33;;;;;;;17.14;37.18;97906.91;4974690;28;20285;-86
2022/03/08 09:42:01;;;;;;;3.70;3.30;;;;;;;17.38;36.89;97947.16;4973878;28;20728;-87
2022/03/08 09:44:28;;;;;;;3.53;3.03;;;;;;;17.19;37.27;97908.91;4973702;28;20210;-84
2022/03/08 09:46:55;;;;;;;3.97;3.33;;;;;;;17.18;37.27;97908.81;4992109;28;20230;-84
2022/03/08 09:49:22;;;;;;;3.50;3.10;;;;;;;17.33;36.92;97935.91;4973369;28;20286;-83
2022/03/08 09:51:51;;;;;;;3.40;3.10;;;;;;;17.48;36.94;97963.78;4980491;28;20246;-84
2022/03/08 09:54:17;;;;;;;3.53;3.23;;;;;;;17.11;37.34;97889.00;4980789;28;20324;-84
2022/03/08 09:56:44;;;;;;;3.20;2.90;;;;;;;16.35;37.30;97755.47;4970567;28;20195;-84
2022/03/08 09:59:14;;;;;;;3.97;3.50;;;;;;;17.47;37.11;97941.72;4969548;28;20638;-84
2022/03/08 10:01:40;;;;;;;3.40;3.10;;;;;;;16.95;37.17;97849.22;4955987;28;20302;-85
2022/03/08 10:04:07;;;;;;;3.00;2.80;;;;;;;17.39;37.23;97932.78;4973093;28;20234;-85
2022/03/08 10:06:54;;;;;;;3.37;3.07;;;;;;;17.14;36.97;97886.59;4976440;28;20219;-84
2022/03/08 10:09:21;;;;;;;3.07;2.80;;;;;;;17.17;37.38;97890.16;4974472;28;20282;-85
2022/03/08 10:11:54;;;;;;;3.07;2.87;;;;;;;17.44;37.67;97931.41;4973799;28;20258;-84
2022/03/08 10:14:39;;;;;;;3.30;3.00;;;;;;;17.04;37.41;97867.47;4970383;28;20298;-84
2022/03/08 10:17:06;;;;;;;3.10;2.80;;;;;;;17.23;37.29;97899.78;4966713;28;20619;-85
2022/03/08 10:19:53;;;;;;;3.20;2.90;;;;;;;17.77;36.87;97996.66;4960134;28;20531;-84
2022/03/08 10:22:23;;;;;;;2.93;2.63;;;;;;;17.13;37.45;97880.63;4987713;28;20214;-84
2022/03/08 10:24:50;;;;;;;3.07;2.77;;;;;;;17.31;37.43;97916.28;4973450;28;20294;-85
2022/03/08 10:27:16;;;;;;;2.93;2.73;;;;;;;15.93;37.40;97678.84;4985401;28;20226;-84
2022/03/08 10:29:43;;;;;;;3.07;2.77;;;;;;;17.27;37.32;97916.91;4959829;28;20695;-84
2022/03/08 10:32:17;;;;;;;3.13;2.93;;;;;;;17.74;37.57;97987.19;4956389;28;20684;-85
2022/03/08 10:34:45;;;;;;;2.97;2.77;;;;;;;17.37;37.74;97914.03;4988922;28;20226;-85
2022/03/08 10:37:15;;;;;;;2.60;2.40;;;;;;;16.73;37.42;97808.28;4989547;28;20218;-81
2022/03/08 10:39:56;;;;;;;3.37;2.90;;;;;;;17.39;37.18;97940.41;4960785;28;20285;-83
2022/03/08 10:42:27;;;;;;;3.07;2.87;;;;;;;17.28;37.67;97906.84;4954746;28;20297;-82
2022/03/08 10:45:08;;;;;;;2.70;2.50;;;;;;;17.48;37.80;97949.44;4972929;28;20234;-83
2022/03/08 10:47:39;;;;;;;3.07;2.80;;;;;;;17.70;37.95;97986.97;4962007;28;20299;-83
2022/03/08 10:50:06;;;;;;;2.83;2.63;;;;;;;16.54;37.66;97786.91;4993824;28;20219;-83
2022/03/08 10:52:37;;;;;;;2.50;2.30;;;;;;;17.27;37.69;97914.38;4963059;28;20843;-84
2022/03/08 10:55:24;;;;;;;2.77;2.57;;;;;;;17.48;37.39;97956.16;4961854;28;20234;-84
2022/03/08 10:57:55;;;;;;;3.10;2.80;;;;;;;16.92;37.68;97850.72;4978768;28;20222;-85
2022/03/08 11:00:30;;;;;;;3.00;2.70;;;;;;;17.70;37.74;97992.03;4976640;28;20242;-82
2022/03/08 11:02:57;;;;;;;2.90;2.70;;;;;;;17.70;37.29;97976.78;4983633;28;20342;-82
2022/03/08 11:05:29;;;;;;;3.00;2.70;;;;;;;17.07;37.45;97872.72;4975264;28;20211;-85
2022/03/08 11:07:57;;;;;;;3.07;2.77;;;;;;;17.70;37.10;97984.41;4954445;28;20199;-85
2022/03/08 11:10:25;;;;;;;3.10;2.80;;;;;;;17.32;37.41;97897.72;4951802;28;20776;-85
2022/03/08 11:12:52;;;;;;;3.43;3.10;;;;;;;16.94;37.90;97821.22;4970432;28;20290;-86
2022/03/08 11:15:19;;;;;;;3.43;3.13;;;;;;;17.22;37.93;97865.00;4976587;28;20226;-85
2022/03/08 11:17:47;;;;;;;4.63;3.43;;;;;;;17.04;37.91;97857.31;4977094;28;20229;-84
2022/03/08 11:20:16;;;;;;;4.03;3.00;;;;;;;16.02;37.47;97670.03;4976825;28;20309;-85
2022/03/08 11:22:42;;;;;;;3.50;3.20;;;;;;;17.35;37.60;97905.50;4993155;28;20234;-85
2022/03/08 11:25:10;;;;;;;3.00;2.70;;;;;;;17.36;37.46;97907.22;4976761;28;20724;-84
2022/03/08 11:27:57;;;;;;;3.17;2.87;;;;;;;17.28;37.59;97881.44;4980229;28;20692;-84
2022/03/08 11:30:28;;;;;;;3.37;3.07;;;;;;;16.98;37.49;97821.44;4993177;28;20222;-84
2022/03/08 11:33:18;;;;;;;4.07;3.20;;;;;;;17.74;37.48;97950.75;4977564;28;20314;-83
2022/03/08 11:36:25;;;;;;;5.80;3.23;;;;;;;17.26;37.94;97867.78;4973070;28;20234;-84
2022/03/08 11:39:11;;;;;;;3.30;3.00;;;;;;;17.75;37.80;97957.56;4979664;28;20632;-85
2022/03/08 11:41:37;;;;;;;3.40;3.10;;;;;;;17.54;37.54;97910.75;4994414;28;20598;-85
2022/03/08 11:44:04;;;;;;;3.67;3.30;;;;;;;16.39;37.76;97706.69;4976701;28;20199;-84
2022/03/08 11:46:35;;;;;;;3.43;3.10;;;;;;;16.52;37.92;97728.50;4972781;28;20211;-86
2022/03/08 11:49:03;;;;;;;3.10;2.80;;;;;;;17.20;37.52;97864.91;4993398;28;20207;-83
2022/03/08 11:51:31;;;;;;;3.23;2.93;;;;;;;17.14;37.25;97838.34;4992884;28;20223;-86
2022/03/08 11:54:05;;;;;;;3.80;3.20;;;;;;;17.75;37.28;97940.66;4977356;28;20211;-86
2022/03/08 11:57:19;;;;;;;4.00;3.20;;;;;;;17.77;37.23;97933.13;4978019;28;20195;-89
2022/03/08 12:06:11;;;;;;;4.40;3.13;;;;;;;17.76;37.84;97926.25;5113203;22;20292;-89
2022/03/08 12:09:38;;;;;;;4.37;3.17;;;;;;;10.67;37.54;96732.06;5061733;28;20174;-90
2022/03/08 12:12:26;;;;;;;3.40;3.07;;;;;;;13.51;37.53;97289.25;5041788;28;20174;-89
2022/03/08 12:15:07;;;;;;;3.50;3.10;;;;;;;11.65;37.78;96900.38;5038366;28;20241;-88
2022/03/08 12:17:34;;;;;;;4.07;3.10;;;;;;;15.38;37.72;97534.81;5041130;28;20212;-83
2022/03/08 12:20:05;;;;;;;3.70;2.90;;;;;;;17.71;37.46;97941.28;5020805;28;20225;-84
2022/03/08 12:22:33;;;;;;;5.63;4.10;;;;;;;16.15;37.57;97666.50;5007754;28;20732;-84
2022/03/08 12:25:00;;;;;;;4.70;4.00;;;;;;;16.94;36.98;97790.75;4999596;28;20259;-84
2022/03/08 12:27:46;;;;;;;4.53;3.77;;;;;;;17.33;36.76;97867.31;5032160;28;20217;-84
2022/03/08 12:30:12;;;;;;;5.33;3.70;;;;;;;17.59;37.30;97905.09;5034989;28;20223;-84
2022/03/08 12:32:41;;;;;;;4.30;3.60;;;;;;;17.73;37.17;97924.44;5047577;28;20236;-81
2022/03/08 12:35:12;;;;;;;4.27;3.70;;;;;;;17.75;37.21;97916.91;5027400;28;20210;-81
2022/03/08 12:37:49;;;;;;;5.27;4.10;;;;;;;17.26;36.91;97842.38;5018234;28;20206;-81
2022/03/08 12:40:19;;;;;;;5.00;3.50;;;;;;;17.75;37.52;97917.78;5006738;28;20222;-82
2022/03/08 12:42:49;;;;;;;6.00;3.40;;;;;;;17.75;37.69;97933.03;5013584;28;20206;-84
2022/03/08 12:45:24;;;;;;;6.87;4.17;;;;;;;16.30;37.18;97664.75;5007786;28;20205;-85
2022/03/08 12:47:56;;;;;;;5.07;4.00;;;;;;;17.41;37.63;97855.84;5014271;28;20510;-84
2022/03/08 12:50:41;;;;;;;4.83;4.00;;;;;;;17.77;37.46;97907.69;4997305;28;20729;-84
2022/03/08 12:53:24;;;;;;;5.87;4.13;;;;;;;15.73;37.19;97567.94;5019338;28;20209;-85
2022/03/08 12:55:51;;;;;;;5.50;4.37;;;;;;;17.19;37.51;97817.47;5005662;28;20205;-85
2022/03/08 12:58:20;;;;;;;5.20;4.50;;;;;;;17.35;37.52;97841.97;4980379;28;20202;-85
2022/03/08 13:00:57;;;;;;;6.73;4.20;;;;;;;16.80;37.62;97739.28;5024235;28;20988;-84
2022/03/08 13:03:28;;;;;;;7.70;4.33;;;;;;;17.37;37.29;97851.41;5037149;28;20244;-85
2022/03/08 13:05:57;;;;;;;5.23;4.00;;;;;;;17.34;37.61;97847.84;5010732;28;20586;-85
2022/03/08 13:08:26;;;;;;;5.50;4.37;;;;;;;17.41;37.61;97860.06;5021055;28;20209;-85
2022/03/08 13:11:02;;;;;;;4.33;3.93;;;;;;;17.05;37.55;97787.09;5011825;28;20256;-85
2022/03/08 13:13:47;;;;;;;6.93;4.33;;;;;;;17.35;37.20;97842.84;5031810;28;20427;-83
2022/03/08 13:19:37;;;;;;;6.10;4.30;;;;;;;10.64;37.83;96754.47;3164200;26;20214;-91
2022/03/08 13:22:48;;;;;;;6.50;4.50;;;;;;;13.47;37.22;97166.16;4967471;29;20173;-90
2022/03/08 13:25:43;;;;;;;4.73;3.67;;;;;;;17.79;37.41;97916.25;4994742;28;20160;-90
2022/03/08 13:29:10;;;;;;;4.80;4.00;;;;;;;17.79;37.78;97916.25;4975368;28;20170;-90
2022/03/08 13:32:09;;;;;;;6.23;4.10;;;;;;;11.32;37.61;96913.47;4983817;28;20168;-90
2022/03/08 13:35:38;;;;;;;5.87;4.37;;;;;;;17.78;37.77;97905.22;5008647;28;20219;-90
2022/03/08 13:38:21;;;;;;;5.33;4.03;;;;;;;14.68;37.72;97468.50;4987840;28;20388;-84
2022/03/08 13:40:48;;;;;;;4.97;4.03;;;;;;;17.62;37.73;97877.28;4986193;28;20781;-86
2022/03/08 13:43:15;;;;;;;5.30;4.23;;;;;;;16.68;37.55;97722.56;4985273;28;20202;-83
2022/03/08 13:46:04;;;;;;;5.20;3.97;;;;;;;17.14;37.25;97802.81;4945915;28;20199;-84
2022/03/08 13:48:36;;;;;;;5.90;4.60;;;;;;;17.35;37.09;97834.38;4956493;28;20246;-83
2022/03/08 13:51:04;;;;;;;6.37;4.73;;;;;;;16.84;36.87;97748.78;5002762;22;20259;-74
2022/03/08 13:53:31;;;;;;;5.30;4.57;;;;;;;17.84;36.75;97920.78;4995085;28;20229;-75
2022/03/08 13:55:58;;;;;;;4.87;4.20;;;;;;;17.84;37.13;97920.78;5006920;28;20230;-76
2022/03/08 13:58:30;;;;;;;6.03;4.00;;;;;;;17.58;36.81;97865.22;4990141;28;20230;-76
2022/03/08 14:00:56;;;;;;;4.67;3.93;;;;;;;17.86;37.21;97910.69;5001170;28;20222;-76
2022/03/08 14:03:24;;;;;;;4.70;3.80;;;;;;;17.60;36.99;97868.72;5007685;28;20252;-76
2022/03/08 14:05:54;;;;;;;5.93;4.10;;;;;;;17.89;36.83;97913.38;4988497;28;20202;-75
2022/03/08 14:08:24;;;;;;;4.43;3.77;;;;;;;17.39;37.30;97829.50;5006139;28;20666;-75
2022/03/08 14:10:52;;;;;;;6.07;4.50;;;;;;;17.03;36.84;97758.22;5000262;28;20349;-75
2022/03/08 14:13:18;;;;;;;4.27;3.87;;;;;;;17.89;37.34;97918.47;4982609;28;20210;-76
2022/03/08 14:15:56;;;;;;;4.90;4.00;;;;;;;17.60;36.92;97862.75;4980606;28;20813;-76
2022/03/08 14:18:23;;;;;;;5.40;4.10;;;;;;;16.68;37.22;97699.72;4999235;28;20205;-76
2022/03/08 14:20:49;;;;;;;6.50;4.10;;;;;;;17.59;37.26;97861.03;4989078;28;20797;-76
2022/03/08 14:23:16;;;;;;;5.80;4.03;;;;;;;17.23;37.32;97793.97;4975959;28;20281;-77
2022/03/08 14:26:08;;;;;;;4.47;3.80;;;;;;;17.89;37.20;97906.63;4990132;28;20264;-75